sensor_id;sensor_type;location;lat;lon;timestamp;temperature;humidity
782;DHT22;374;52.568;13.402;2023-03-21T00:01:53;10.20;99.90
782;DHT22;374;52.568;13.402;2023-03-21T00:04:20;10.20;99.90
782;DHT22;374;52.568;13.402;2023-03-21T00:06:45;10.20;99.90
782;DHT22;374;52.568;13.402;2023-03-21T00:09:11;10.20;99.90
782;DHT22;374;52.568;13.402;2023-03-21T00:11:37;10.20;99.90
782;DHT22;374;52.568;13.402;2023-03-21T00:14:03;10.10;99.90
782;DHT22;374;52.568;13.402;2023-03-21T00:16:29;10.10;99.90
782;DHT22;374;52.568;13.402;2023-03-21T00:18:58;10.10;99.90
782;DHT22;374;52.568;13.402;2023-03-21T00:21:27;10.10;99.90
782;DHT22;374;52.568;13.402;2023-03-21T00:23:56;10.10;99.90
782;DHT22;374;52.568;13.402;2023-03-21T00:26:22;10.10;99.90
782;DHT22;374;52.568;13.402;2023-03-21T00:28:48;10.10;99.90
782;DHT22;374;52.568;13.402;2023-03-21T00:31:14;10.10;99.90
782;DHT22;374;52.568;13.402;2023-03-21T00:33:40;10.10;99.90
782;DHT22;374;52.568;13.402;2023-03-21T00:36:07;10.10;99.90
782;DHT22;374;52.568;13.402;2023-03-21T00:38:34;10.00;99.90
782;DHT22;374;52.568;13.402;2023-03-21T00:41:03;10.00;99.90
782;DHT22;374;52.568;13.402;2023-03-21T00:43:29;10.00;99.90
782;DHT22;374;52.568;13.402;2023-03-21T00:45:56;10.00;99.90
782;DHT22;374;52.568;13.402;2023-03-21T00:48:26;10.00;99.90
782;DHT22;374;52.568;13.402;2023-03-21T00:50:52;10.00;99.90
782;DHT22;374;52.568;13.402;2023-03-21T00:53:19;10.00;99.90
782;DHT22;374;52.568;13.402;2023-03-21T00:55:45;10.00;99.90
782;DHT22;374;52.568;13.402;2023-03-21T00:58:11;10.00;99.90
782;DHT22;374;52.568;13.402;2023-03-21T01:00:37;10.00;99.90
782;DHT22;374;52.568;13.402;2023-03-21T01:03:05;10.00;99.90
782;DHT22;374;52.568;13.402;2023-03-21T01:05:36;10.00;99.90
782;DHT22;374;52.568;13.402;2023-03-21T01:08:21;10.00;99.90
782;DHT22;374;52.568;13.402;2023-03-21T01:10:48;10.00;99.90
782;DHT22;374;52.568;13.402;2023-03-21T01:13:16;10.00;99.90
782;DHT22;374;52.568;13.402;2023-03-21T01:15:47;10.00;99.90
782;DHT22;374;52.568;13.402;2023-03-21T01:18:14;10.00;99.90
782;DHT22;374;52.568;13.402;2023-03-21T01:20:42;10.00;99.90
782;DHT22;374;52.568;13.402;2023-03-21T01:23:08;10.00;99.90
782;DHT22;374;52.568;13.402;2023-03-21T01:25:34;10.00;99.90
782;DHT22;374;52.568;13.402;2023-03-21T01:28:01;9.90;99.90
782;DHT22;374;52.568;13.402;2023-03-21T01:30:26;9.90;99.90
782;DHT22;374;52.568;13.402;2023-03-21T01:32:52;9.90;99.90
782;DHT22;374;52.568;13.402;2023-03-21T01:35:18;9.90;99.90
782;DHT22;374;52.568;13.402;2023-03-21T01:37:43;9.90;99.90
782;DHT22;374;52.568;13.402;2023-03-21T01:40:18;9.90;99.90
782;DHT22;374;52.568;13.402;2023-03-21T01:42:45;9.90;99.90
782;DHT22;374;52.568;13.402;2023-03-21T01:48:14;9.90;99.90
782;DHT22;374;52.568;13.402;2023-03-21T01:50:41;9.90;99.90
782;DHT22;374;52.568;13.402;2023-03-21T01:53:07;9.90;99.90
782;DHT22;374;52.568;13.402;2023-03-21T01:55:33;9.90;99.90
782;DHT22;374;52.568;13.402;2023-03-21T01:58:02;9.90;99.90
782;DHT22;374;52.568;13.402;2023-03-21T02:00:28;9.90;99.90
782;DHT22;374;52.568;13.402;2023-03-21T02:02:56;9.90;99.90
782;DHT22;374;52.568;13.402;2023-03-21T02:05:29;9.80;99.90
782;DHT22;374;52.568;13.402;2023-03-21T02:07:58;9.80;99.90
782;DHT22;374;52.568;13.402;2023-03-21T02:10:24;9.80;99.90
782;DHT22;374;52.568;13.402;2023-03-21T02:12:51;9.80;99.90
782;DHT22;374;52.568;13.402;2023-03-21T02:15:19;9.80;99.90
782;DHT22;374;52.568;13.402;2023-03-21T02:26:14;9.80;99.90
782;DHT22;374;52.568;13.402;2023-03-21T02:29:00;9.80;99.90
782;DHT22;374;52.568;13.402;2023-03-21T02:31:51;9.80;99.90
782;DHT22;374;52.568;13.402;2023-03-21T02:37:20;9.80;99.90
782;DHT22;374;52.568;13.402;2023-03-21T02:40:11;9.80;99.90
782;DHT22;374;52.568;13.402;2023-03-21T02:45:24;9.70;99.90
782;DHT22;374;52.568;13.402;2023-03-21T02:47:57;9.70;99.90
782;DHT22;374;52.568;13.402;2023-03-21T02:50:28;9.70;99.90
782;DHT22;374;52.568;13.402;2023-03-21T02:52:57;9.70;99.90
782;DHT22;374;52.568;13.402;2023-03-21T02:55:27;9.70;99.90
782;DHT22;374;52.568;13.402;2023-03-21T02:57:56;9.70;99.90
782;DHT22;374;52.568;13.402;2023-03-21T03:00:24;9.70;99.90
782;DHT22;374;52.568;13.402;2023-03-21T03:02:50;9.70;99.90
782;DHT22;374;52.568;13.402;2023-03-21T03:05:27;9.70;99.90
782;DHT22;374;52.568;13.402;2023-03-21T03:08:12;9.70;99.90
782;DHT22;374;52.568;13.402;2023-03-21T03:11:00;9.70;99.90
782;DHT22;374;52.568;13.402;2023-03-21T03:13:42;9.60;99.90
782;DHT22;374;52.568;13.402;2023-03-21T03:16:48;9.70;99.90
782;DHT22;374;52.568;13.402;2023-03-21T03:19:27;9.70;99.90
782;DHT22;374;52.568;13.402;2023-03-21T03:21:59;9.70;99.90
782;DHT22;374;52.568;13.402;2023-03-21T03:24:30;9.60;99.90
782;DHT22;374;52.568;13.402;2023-03-21T03:27:01;9.60;99.90
782;DHT22;374;52.568;13.402;2023-03-21T03:29:29;9.60;99.90
782;DHT22;374;52.568;13.402;2023-03-21T03:32:06;9.60;99.90
782;DHT22;374;52.568;13.402;2023-03-21T03:34:36;9.60;99.90
782;DHT22;374;52.568;13.402;2023-03-21T03:37:07;9.60;99.90
782;DHT22;374;52.568;13.402;2023-03-21T03:39:43;9.60;99.90
782;DHT22;374;52.568;13.402;2023-03-21T03:42:19;9.60;99.90
782;DHT22;374;52.568;13.402;2023-03-21T03:44:45;9.60;99.90
782;DHT22;374;52.568;13.402;2023-03-21T03:47:18;9.60;99.90
782;DHT22;374;52.568;13.402;2023-03-21T03:49:50;9.60;99.90
782;DHT22;374;52.568;13.402;2023-03-21T03:52:20;9.60;99.90
782;DHT22;374;52.568;13.402;2023-03-21T03:54:49;9.60;99.90
782;DHT22;374;52.568;13.402;2023-03-21T03:57:16;9.60;99.90
782;DHT22;374;52.568;13.402;2023-03-21T03:59:44;9.60;99.90
782;DHT22;374;52.568;13.402;2023-03-21T04:02:10;9.60;99.90
782;DHT22;374;52.568;13.402;2023-03-21T04:04:36;9.60;99.90
782;DHT22;374;52.568;13.402;2023-03-21T04:07:02;9.60;99.90
782;DHT22;374;52.568;13.402;2023-03-21T04:09:28;9.60;99.90
782;DHT22;374;52.568;13.402;2023-03-21T04:11:55;9.50;99.90
782;DHT22;374;52.568;13.402;2023-03-21T04:14:21;9.50;99.90
782;DHT22;374;52.568;13.402;2023-03-21T04:16:47;9.50;99.90
782;DHT22;374;52.568;13.402;2023-03-21T04:19:13;9.50;99.90
782;DHT22;374;52.568;13.402;2023-03-21T04:21:41;9.50;99.90
782;DHT22;374;52.568;13.402;2023-03-21T04:24:07;9.50;99.90
782;DHT22;374;52.568;13.402;2023-03-21T04:26:33;9.50;99.90
782;DHT22;374;52.568;13.402;2023-03-21T04:29:01;9.50;99.90
782;DHT22;374;52.568;13.402;2023-03-21T04:31:27;9.50;99.90
782;DHT22;374;52.568;13.402;2023-03-21T04:33:59;9.50;99.90
782;DHT22;374;52.568;13.402;2023-03-21T04:36:25;9.50;99.90
782;DHT22;374;52.568;13.402;2023-03-21T04:38:57;9.50;99.90
782;DHT22;374;52.568;13.402;2023-03-21T04:41:27;9.40;99.90
782;DHT22;374;52.568;13.402;2023-03-21T04:43:53;9.50;99.90
782;DHT22;374;52.568;13.402;2023-03-21T04:46:18;9.40;99.90
782;DHT22;374;52.568;13.402;2023-03-21T04:48:44;9.50;99.90
782;DHT22;374;52.568;13.402;2023-03-21T04:51:09;9.40;99.90
782;DHT22;374;52.568;13.402;2023-03-21T04:53:35;9.40;99.90
782;DHT22;374;52.568;13.402;2023-03-21T04:56:02;9.40;99.90
782;DHT22;374;52.568;13.402;2023-03-21T04:58:28;9.40;99.90
782;DHT22;374;52.568;13.402;2023-03-21T05:00:54;9.40;99.90
782;DHT22;374;52.568;13.402;2023-03-21T05:03:21;9.40;99.90
782;DHT22;374;52.568;13.402;2023-03-21T05:05:48;9.40;99.90
782;DHT22;374;52.568;13.402;2023-03-21T05:08:14;9.40;99.90
782;DHT22;374;52.568;13.402;2023-03-21T05:10:40;9.40;99.90
782;DHT22;374;52.568;13.402;2023-03-21T05:13:05;9.40;99.90
782;DHT22;374;52.568;13.402;2023-03-21T05:15:31;9.40;99.90
782;DHT22;374;52.568;13.402;2023-03-21T05:17:56;9.40;99.90
782;DHT22;374;52.568;13.402;2023-03-21T05:20:35;9.40;99.90
782;DHT22;374;52.568;13.402;2023-03-21T05:23:01;9.30;99.90
782;DHT22;374;52.568;13.402;2023-03-21T05:25:26;9.30;99.90
782;DHT22;374;52.568;13.402;2023-03-21T05:27:59;9.30;99.90
782;DHT22;374;52.568;13.402;2023-03-21T05:30:27;9.30;99.90
782;DHT22;374;52.568;13.402;2023-03-21T05:32:53;9.30;99.90
782;DHT22;374;52.568;13.402;2023-03-21T05:35:19;9.40;99.90
782;DHT22;374;52.568;13.402;2023-03-21T05:37:44;9.30;99.90
782;DHT22;374;52.568;13.402;2023-03-21T05:40:10;9.40;99.90
782;DHT22;374;52.568;13.402;2023-03-21T05:42:36;9.40;99.90
782;DHT22;374;52.568;13.402;2023-03-21T05:45:02;9.40;99.90
782;DHT22;374;52.568;13.402;2023-03-21T05:47:28;9.40;99.90
782;DHT22;374;52.568;13.402;2023-03-21T05:49:53;9.40;99.90
782;DHT22;374;52.568;13.402;2023-03-21T05:52:19;9.40;99.90
782;DHT22;374;52.568;13.402;2023-03-21T05:54:45;9.40;99.90
782;DHT22;374;52.568;13.402;2023-03-21T05:57:10;9.40;99.90
782;DHT22;374;52.568;13.402;2023-03-21T05:59:36;9.40;99.90
782;DHT22;374;52.568;13.402;2023-03-21T06:02:01;9.40;99.90
782;DHT22;374;52.568;13.402;2023-03-21T06:04:27;9.40;99.90
782;DHT22;374;52.568;13.402;2023-03-21T06:06:52;9.40;99.90
782;DHT22;374;52.568;13.402;2023-03-21T06:09:19;9.40;99.90
782;DHT22;374;52.568;13.402;2023-03-21T06:11:47;9.40;99.90
782;DHT22;374;52.568;13.402;2023-03-21T06:14:14;9.50;99.90
782;DHT22;374;52.568;13.402;2023-03-21T06:16:39;9.50;99.90
782;DHT22;374;52.568;13.402;2023-03-21T06:19:05;9.50;99.90
782;DHT22;374;52.568;13.402;2023-03-21T06:21:30;9.50;99.90
782;DHT22;374;52.568;13.402;2023-03-21T06:23:56;9.50;99.90
782;DHT22;374;52.568;13.402;2023-03-21T06:26:21;9.50;99.90
782;DHT22;374;52.568;13.402;2023-03-21T06:28:48;9.50;99.90
782;DHT22;374;52.568;13.402;2023-03-21T06:31:14;9.50;99.90
782;DHT22;374;52.568;13.402;2023-03-21T06:33:40;9.50;99.90
782;DHT22;374;52.568;13.402;2023-03-21T06:36:06;9.50;99.90
782;DHT22;374;52.568;13.402;2023-03-21T06:38:31;9.50;99.90
782;DHT22;374;52.568;13.402;2023-03-21T06:40:57;9.50;99.90
782;DHT22;374;52.568;13.402;2023-03-21T06:43:23;9.50;99.90
782;DHT22;374;52.568;13.402;2023-03-21T06:45:49;9.50;99.90
782;DHT22;374;52.568;13.402;2023-03-21T06:48:15;9.60;99.90
782;DHT22;374;52.568;13.402;2023-03-21T06:50:40;9.50;99.90
782;DHT22;374;52.568;13.402;2023-03-21T06:53:06;9.60;99.90
782;DHT22;374;52.568;13.402;2023-03-21T06:55:34;9.50;99.90
782;DHT22;374;52.568;13.402;2023-03-21T06:58:00;9.50;99.90
782;DHT22;374;52.568;13.402;2023-03-21T07:00:25;9.60;99.90
782;DHT22;374;52.568;13.402;2023-03-21T07:02:51;9.60;99.90
782;DHT22;374;52.568;13.402;2023-03-21T07:05:18;9.60;99.90
782;DHT22;374;52.568;13.402;2023-03-21T07:07:43;9.60;99.90
782;DHT22;374;52.568;13.402;2023-03-21T07:10:09;9.60;99.90
782;DHT22;374;52.568;13.402;2023-03-21T07:12:35;9.60;99.90
782;DHT22;374;52.568;13.402;2023-03-21T07:15:05;9.60;99.90
782;DHT22;374;52.568;13.402;2023-03-21T07:17:31;9.60;99.90
782;DHT22;374;52.568;13.402;2023-03-21T07:19:58;9.60;99.90
782;DHT22;374;52.568;13.402;2023-03-21T07:22:23;9.60;99.90
782;DHT22;374;52.568;13.402;2023-03-21T07:24:49;9.60;99.90
782;DHT22;374;52.568;13.402;2023-03-21T07:27:16;9.60;99.90
782;DHT22;374;52.568;13.402;2023-03-21T07:29:41;9.60;99.90
782;DHT22;374;52.568;13.402;2023-03-21T07:32:11;9.60;99.90
782;DHT22;374;52.568;13.402;2023-03-21T07:34:36;9.60;99.90
782;DHT22;374;52.568;13.402;2023-03-21T07:37:02;9.60;99.90
782;DHT22;374;52.568;13.402;2023-03-21T07:39:28;9.60;99.90
782;DHT22;374;52.568;13.402;2023-03-21T07:41:54;9.60;99.90
782;DHT22;374;52.568;13.402;2023-03-21T07:44:22;9.60;99.90
782;DHT22;374;52.568;13.402;2023-03-21T07:46:48;9.60;99.90
782;DHT22;374;52.568;13.402;2023-03-21T07:49:13;9.70;99.90
782;DHT22;374;52.568;13.402;2023-03-21T07:51:39;9.70;99.90
782;DHT22;374;52.568;13.402;2023-03-21T07:54:05;9.70;99.90
782;DHT22;374;52.568;13.402;2023-03-21T07:56:31;9.70;99.90
782;DHT22;374;52.568;13.402;2023-03-21T07:58:56;9.70;99.90
782;DHT22;374;52.568;13.402;2023-03-21T08:01:23;9.70;99.90
782;DHT22;374;52.568;13.402;2023-03-21T08:03:49;9.70;99.90
782;DHT22;374;52.568;13.402;2023-03-21T08:06:15;9.70;99.90
782;DHT22;374;52.568;13.402;2023-03-21T08:08:41;9.70;99.90
782;DHT22;374;52.568;13.402;2023-03-21T08:11:06;9.70;99.90
782;DHT22;374;52.568;13.402;2023-03-21T08:13:32;9.70;99.90
782;DHT22;374;52.568;13.402;2023-03-21T08:15:58;9.80;99.90
782;DHT22;374;52.568;13.402;2023-03-21T08:18:23;9.80;99.90
782;DHT22;374;52.568;13.402;2023-03-21T08:20:53;9.80;99.90
782;DHT22;374;52.568;13.402;2023-03-21T08:23:19;9.80;99.90
782;DHT22;374;52.568;13.402;2023-03-21T08:25:45;9.80;99.90
782;DHT22;374;52.568;13.402;2023-03-21T08:28:11;9.80;99.90
782;DHT22;374;52.568;13.402;2023-03-21T08:30:36;9.80;99.90
782;DHT22;374;52.568;13.402;2023-03-21T08:33:03;9.80;99.90
782;DHT22;374;52.568;13.402;2023-03-21T08:35:29;9.80;99.90
782;DHT22;374;52.568;13.402;2023-03-21T08:37:55;9.80;99.90
782;DHT22;374;52.568;13.402;2023-03-21T08:40:21;9.80;99.90
782;DHT22;374;52.568;13.402;2023-03-21T08:42:47;9.90;99.90
782;DHT22;374;52.568;13.402;2023-03-21T08:45:14;9.90;99.90
782;DHT22;374;52.568;13.402;2023-03-21T08:47:40;9.90;99.90
782;DHT22;374;52.568;13.402;2023-03-21T08:50:07;9.90;99.90
782;DHT22;374;52.568;13.402;2023-03-21T08:52:33;9.90;99.90
782;DHT22;374;52.568;13.402;2023-03-21T08:55:00;9.90;99.90
782;DHT22;374;52.568;13.402;2023-03-21T08:57:27;9.90;99.90
782;DHT22;374;52.568;13.402;2023-03-21T08:59:53;9.90;99.90
782;DHT22;374;52.568;13.402;2023-03-21T09:02:18;9.90;99.90
782;DHT22;374;52.568;13.402;2023-03-21T09:04:44;9.90;99.90
782;DHT22;374;52.568;13.402;2023-03-21T09:07:10;9.90;99.90
782;DHT22;374;52.568;13.402;2023-03-21T09:09:37;9.90;99.90
782;DHT22;374;52.568;13.402;2023-03-21T09:12:03;10.00;99.90
782;DHT22;374;52.568;13.402;2023-03-21T09:14:29;10.00;99.90
782;DHT22;374;52.568;13.402;2023-03-21T09:16:54;10.00;99.90
782;DHT22;374;52.568;13.402;2023-03-21T09:19:20;10.00;99.90
782;DHT22;374;52.568;13.402;2023-03-21T09:21:46;10.00;99.90
782;DHT22;374;52.568;13.402;2023-03-21T09:24:12;10.00;99.90
782;DHT22;374;52.568;13.402;2023-03-21T09:26:38;10.00;99.90
782;DHT22;374;52.568;13.402;2023-03-21T09:29:04;10.00;99.90
782;DHT22;374;52.568;13.402;2023-03-21T09:31:30;10.00;99.90
782;DHT22;374;52.568;13.402;2023-03-21T09:33:56;10.00;99.90
782;DHT22;374;52.568;13.402;2023-03-21T09:36:22;10.10;99.90
782;DHT22;374;52.568;13.402;2023-03-21T09:38:51;10.10;99.90
782;DHT22;374;52.568;13.402;2023-03-21T09:41:25;10.10;99.90
782;DHT22;374;52.568;13.402;2023-03-21T09:46:49;10.20;99.90
782;DHT22;374;52.568;13.402;2023-03-21T09:49:24;10.20;99.90
782;DHT22;374;52.568;13.402;2023-03-21T09:51:57;10.20;99.90
782;DHT22;374;52.568;13.402;2023-03-21T09:54:29;10.20;99.90
782;DHT22;374;52.568;13.402;2023-03-21T09:59:46;10.30;99.90
782;DHT22;374;52.568;13.402;2023-03-21T10:04:44;10.30;99.90
782;DHT22;374;52.568;13.402;2023-03-21T10:07:12;10.40;99.90
782;DHT22;374;52.568;13.402;2023-03-21T10:09:45;10.40;99.90
782;DHT22;374;52.568;13.402;2023-03-21T10:12:19;10.40;99.90
782;DHT22;374;52.568;13.402;2023-03-21T10:14:48;10.50;99.90
782;DHT22;374;52.568;13.402;2023-03-21T10:17:37;10.50;99.90
782;DHT22;374;52.568;13.402;2023-03-21T10:20:24;10.50;99.90
782;DHT22;374;52.568;13.402;2023-03-21T10:22:58;10.50;99.90
782;DHT22;374;52.568;13.402;2023-03-21T10:25:38;10.50;99.90
782;DHT22;374;52.568;13.402;2023-03-21T10:28:06;10.50;99.90
782;DHT22;374;52.568;13.402;2023-03-21T10:30:40;10.50;99.90
782;DHT22;374;52.568;13.402;2023-03-21T10:33:10;10.60;99.90
782;DHT22;374;52.568;13.402;2023-03-21T10:35:38;10.60;99.90
782;DHT22;374;52.568;13.402;2023-03-21T10:38:12;10.60;99.90
782;DHT22;374;52.568;13.402;2023-03-21T10:40:39;10.60;99.90
782;DHT22;374;52.568;13.402;2023-03-21T10:43:17;10.70;99.90
782;DHT22;374;52.568;13.402;2023-03-21T10:45:45;10.70;99.90
782;DHT22;374;52.568;13.402;2023-03-21T10:48:12;10.80;99.90
782;DHT22;374;52.568;13.402;2023-03-21T10:50:37;10.80;99.90
782;DHT22;374;52.568;13.402;2023-03-21T10:53:18;10.80;99.90
782;DHT22;374;52.568;13.402;2023-03-21T10:55:56;10.80;99.90
782;DHT22;374;52.568;13.402;2023-03-21T10:58:28;10.80;99.90
782;DHT22;374;52.568;13.402;2023-03-21T11:01:01;10.80;99.90
782;DHT22;374;52.568;13.402;2023-03-21T11:03:31;10.80;99.90
782;DHT22;374;52.568;13.402;2023-03-21T11:06:26;10.80;99.90
782;DHT22;374;52.568;13.402;2023-03-21T11:09:00;10.80;99.90
782;DHT22;374;52.568;13.402;2023-03-21T11:11:42;10.80;99.90
782;DHT22;374;52.568;13.402;2023-03-21T11:14:25;10.80;99.90
782;DHT22;374;52.568;13.402;2023-03-21T11:16:51;10.80;99.90
782;DHT22;374;52.568;13.402;2023-03-21T11:19:19;10.80;99.90
782;DHT22;374;52.568;13.402;2023-03-21T11:21:50;10.80;99.90
782;DHT22;374;52.568;13.402;2023-03-21T11:24:17;10.80;99.90
782;DHT22;374;52.568;13.402;2023-03-21T11:26:44;10.80;99.90
782;DHT22;374;52.568;13.402;2023-03-21T11:29:29;10.90;99.90
782;DHT22;374;52.568;13.402;2023-03-21T11:34:58;10.90;99.90
782;DHT22;374;52.568;13.402;2023-03-21T11:37:33;10.90;99.90
782;DHT22;374;52.568;13.402;2023-03-21T11:42:51;10.90;99.90
782;DHT22;374;52.568;13.402;2023-03-21T11:45:21;11.00;99.90
782;DHT22;374;52.568;13.402;2023-03-21T11:47:48;10.90;99.90
782;DHT22;374;52.568;13.402;2023-03-21T11:50:29;10.90;99.90
782;DHT22;374;52.568;13.402;2023-03-21T11:53:16;11.00;99.90
782;DHT22;374;52.568;13.402;2023-03-21T11:56:02;11.00;99.90
782;DHT22;374;52.568;13.402;2023-03-21T12:06:52;11.10;99.90
782;DHT22;374;52.568;13.402;2023-03-21T12:12:03;11.10;99.90
782;DHT22;374;52.568;13.402;2023-03-21T12:15:02;11.20;99.90
782;DHT22;374;52.568;13.402;2023-03-21T12:23:36;11.20;99.90
782;DHT22;374;52.568;13.402;2023-03-21T12:26:27;11.20;99.90
782;DHT22;374;52.568;13.402;2023-03-21T12:37:16;11.30;99.90
782;DHT22;374;52.568;13.402;2023-03-21T12:39:46;11.30;99.90
782;DHT22;374;52.568;13.402;2023-03-21T12:45:20;11.30;99.90
782;DHT22;374;52.568;13.402;2023-03-21T12:47:52;11.30;99.90
782;DHT22;374;52.568;13.402;2023-03-21T12:50:32;11.40;99.90
782;DHT22;374;52.568;13.402;2023-03-21T12:56:27;11.50;99.90
782;DHT22;374;52.568;13.402;2023-03-21T12:59:16;11.50;99.90
782;DHT22;374;52.568;13.402;2023-03-21T13:01:44;11.50;99.90
782;DHT22;374;52.568;13.402;2023-03-21T13:07:01;11.50;99.90
782;DHT22;374;52.568;13.402;2023-03-21T13:09:35;11.60;99.90
782;DHT22;374;52.568;13.402;2023-03-21T13:12:36;11.60;99.90
782;DHT22;374;52.568;13.402;2023-03-21T13:18:12;11.60;99.90
782;DHT22;374;52.568;13.402;2023-03-21T13:24:04;11.60;99.90
782;DHT22;374;52.568;13.402;2023-03-21T13:26:42;11.60;99.90
782;DHT22;374;52.568;13.402;2023-03-21T13:29:27;11.70;99.90
782;DHT22;374;52.568;13.402;2023-03-21T13:31:57;11.60;99.90
782;DHT22;374;52.568;13.402;2023-03-21T13:34:24;11.60;99.90
782;DHT22;374;52.568;13.402;2023-03-21T13:36:51;11.60;99.90
782;DHT22;374;52.568;13.402;2023-03-21T13:39:24;11.60;99.90
782;DHT22;374;52.568;13.402;2023-03-21T13:41:51;11.60;99.90
782;DHT22;374;52.568;13.402;2023-03-21T13:44:24;11.60;99.90
782;DHT22;374;52.568;13.402;2023-03-21T13:47:05;11.60;99.90
782;DHT22;374;52.568;13.402;2023-03-21T13:49:36;11.60;99.90
782;DHT22;374;52.568;13.402;2023-03-21T13:52:26;11.60;99.90
782;DHT22;374;52.568;13.402;2023-03-21T13:54:54;11.60;99.90
782;DHT22;374;52.568;13.402;2023-03-21T13:57:36;11.60;99.90
782;DHT22;374;52.568;13.402;2023-03-21T14:00:27;11.60;99.90
782;DHT22;374;52.568;13.402;2023-03-21T14:02:59;11.60;99.90
782;DHT22;374;52.568;13.402;2023-03-21T14:05:30;11.60;99.90
782;DHT22;374;52.568;13.402;2023-03-21T14:08:02;11.60;99.90
782;DHT22;374;52.568;13.402;2023-03-21T14:10:38;11.70;99.90
782;DHT22;374;52.568;13.402;2023-03-21T14:13:05;11.70;99.90
782;DHT22;374;52.568;13.402;2023-03-21T14:15:36;11.70;99.90
782;DHT22;374;52.568;13.402;2023-03-21T14:18:04;11.70;99.90
782;DHT22;374;52.568;13.402;2023-03-21T14:20:32;11.70;99.90
782;DHT22;374;52.568;13.402;2023-03-21T14:22:58;11.70;99.90
782;DHT22;374;52.568;13.402;2023-03-21T14:25:32;11.70;99.90
782;DHT22;374;52.568;13.402;2023-03-21T14:28:00;11.70;99.90
782;DHT22;374;52.568;13.402;2023-03-21T14:30:34;11.70;99.90
782;DHT22;374;52.568;13.402;2023-03-21T14:35:56;11.70;99.90
782;DHT22;374;52.568;13.402;2023-03-21T14:38:25;11.70;99.90
782;DHT22;374;52.568;13.402;2023-03-21T14:40:54;11.70;99.90
782;DHT22;374;52.568;13.402;2023-03-21T14:43:22;11.70;99.90
782;DHT22;374;52.568;13.402;2023-03-21T14:45:50;11.70;99.90
782;DHT22;374;52.568;13.402;2023-03-21T14:48:17;11.70;99.90
782;DHT22;374;52.568;13.402;2023-03-21T14:50:50;11.70;99.90
782;DHT22;374;52.568;13.402;2023-03-21T14:56:00;11.70;99.90
782;DHT22;374;52.568;13.402;2023-03-21T14:58:26;11.70;99.90
782;DHT22;374;52.568;13.402;2023-03-21T15:00:56;11.80;99.90
782;DHT22;374;52.568;13.402;2023-03-21T15:03:23;11.70;99.90
782;DHT22;374;52.568;13.402;2023-03-21T15:05:51;11.80;99.90
782;DHT22;374;52.568;13.402;2023-03-21T15:08:20;11.80;99.90
782;DHT22;374;52.568;13.402;2023-03-21T15:11:03;11.80;99.90
782;DHT22;374;52.568;13.402;2023-03-21T15:13:35;11.90;99.90
782;DHT22;374;52.568;13.402;2023-03-21T15:16:03;11.80;99.90
782;DHT22;374;52.568;13.402;2023-03-21T15:18:31;11.90;99.90
782;DHT22;374;52.568;13.402;2023-03-21T15:21:02;11.90;99.90
782;DHT22;374;52.568;13.402;2023-03-21T15:23:41;11.90;99.90
782;DHT22;374;52.568;13.402;2023-03-21T15:26:15;11.90;99.90
782;DHT22;374;52.568;13.402;2023-03-21T15:28:45;11.90;99.90
782;DHT22;374;52.568;13.402;2023-03-21T15:31:21;11.90;99.90
782;DHT22;374;52.568;13.402;2023-03-21T15:33:48;11.90;99.90
782;DHT22;374;52.568;13.402;2023-03-21T15:36:24;11.90;99.90
782;DHT22;374;52.568;13.402;2023-03-21T15:38:50;11.90;99.90
782;DHT22;374;52.568;13.402;2023-03-21T15:41:26;11.90;99.90
782;DHT22;374;52.568;13.402;2023-03-21T15:47:02;11.90;99.90
782;DHT22;374;52.568;13.402;2023-03-21T15:49:30;11.90;99.90
782;DHT22;374;52.568;13.402;2023-03-21T15:52:02;11.90;99.90
782;DHT22;374;52.568;13.402;2023-03-21T15:54:40;11.90;99.90
782;DHT22;374;52.568;13.402;2023-03-21T15:59:48;12.00;99.90
782;DHT22;374;52.568;13.402;2023-03-21T16:02:24;11.90;99.90
782;DHT22;374;52.568;13.402;2023-03-21T16:05:20;12.00;99.90
782;DHT22;374;52.568;13.402;2023-03-21T16:07:49;12.00;99.90
782;DHT22;374;52.568;13.402;2023-03-21T16:10:32;11.90;99.90
782;DHT22;374;52.568;13.402;2023-03-21T16:12:58;12.00;99.90
782;DHT22;374;52.568;13.402;2023-03-21T16:15:26;11.90;99.90
782;DHT22;374;52.568;13.402;2023-03-21T16:17:57;11.90;99.90
782;DHT22;374;52.568;13.402;2023-03-21T16:20:29;11.90;99.90
782;DHT22;374;52.568;13.402;2023-03-21T16:22:58;11.80;99.90
782;DHT22;374;52.568;13.402;2023-03-21T16:25:28;12.20;99.90
782;DHT22;374;52.568;13.402;2023-03-21T16:28:00;12.00;99.90
782;DHT22;374;52.568;13.402;2023-03-21T16:30:25;11.90;99.90
782;DHT22;374;52.568;13.402;2023-03-21T16:32:51;11.90;99.90
782;DHT22;374;52.568;13.402;2023-03-21T16:35:18;12.00;99.90
782;DHT22;374;52.568;13.402;2023-03-21T16:37:44;11.90;99.90
782;DHT22;374;52.568;13.402;2023-03-21T16:40:31;11.90;99.90
782;DHT22;374;52.568;13.402;2023-03-21T16:42:58;12.00;99.90
782;DHT22;374;52.568;13.402;2023-03-21T16:45:23;11.90;99.90
782;DHT22;374;52.568;13.402;2023-03-21T16:47:49;11.90;99.90
782;DHT22;374;52.568;13.402;2023-03-21T16:50:38;11.90;99.90
782;DHT22;374;52.568;13.402;2023-03-21T16:53:04;11.90;99.90
782;DHT22;374;52.568;13.402;2023-03-21T16:55:30;12.00;99.90
782;DHT22;374;52.568;13.402;2023-03-21T16:57:57;11.90;99.90
782;DHT22;374;52.568;13.402;2023-03-21T17:00:26;11.90;99.90
782;DHT22;374;52.568;13.402;2023-03-21T17:02:53;11.90;99.90
782;DHT22;374;52.568;13.402;2023-03-21T17:05:27;12.00;99.90
782;DHT22;374;52.568;13.402;2023-03-21T17:07:55;11.90;99.90
782;DHT22;374;52.568;13.402;2023-03-21T17:10:24;11.90;99.90
782;DHT22;374;52.568;13.402;2023-03-21T17:12:51;11.90;99.90
782;DHT22;374;52.568;13.402;2023-03-21T17:15:17;11.90;99.90
782;DHT22;374;52.568;13.402;2023-03-21T17:17:46;11.90;99.90
782;DHT22;374;52.568;13.402;2023-03-21T17:20:16;11.90;99.90
782;DHT22;374;52.568;13.402;2023-03-21T17:22:44;11.90;99.90
782;DHT22;374;52.568;13.402;2023-03-21T17:25:10;11.90;99.90
782;DHT22;374;52.568;13.402;2023-03-21T17:27:36;11.90;99.90
782;DHT22;374;52.568;13.402;2023-03-21T17:30:02;11.90;99.90
782;DHT22;374;52.568;13.402;2023-03-21T17:32:28;11.90;99.90
782;DHT22;374;52.568;13.402;2023-03-21T17:34:54;11.90;99.90
782;DHT22;374;52.568;13.402;2023-03-21T17:37:19;11.90;99.90
782;DHT22;374;52.568;13.402;2023-03-21T17:39:52;11.90;99.90
782;DHT22;374;52.568;13.402;2023-03-21T17:42:19;11.90;99.90
782;DHT22;374;52.568;13.402;2023-03-21T17:44:45;11.90;99.90
782;DHT22;374;52.568;13.402;2023-03-21T17:47:11;11.90;99.90
782;DHT22;374;52.568;13.402;2023-03-21T17:49:37;11.90;99.90
782;DHT22;374;52.568;13.402;2023-03-21T17:52:02;11.90;99.90
782;DHT22;374;52.568;13.402;2023-03-21T17:54:28;11.90;99.90
782;DHT22;374;52.568;13.402;2023-03-21T17:56:53;11.90;99.90
782;DHT22;374;52.568;13.402;2023-03-21T17:59:20;11.90;99.90
782;DHT22;374;52.568;13.402;2023-03-21T18:01:46;11.90;99.90
782;DHT22;374;52.568;13.402;2023-03-21T18:04:11;11.90;99.90